1943 Tropical Cyclone NOT_NAMED (1943054S17118)


IBTrACS version v04r00. Visit IBTrACS website for data access.
Please direct all questions to the IBTrACS Q and A forum

Storm track - Intensity - Wind Radii - Intensity Data - Source Data - All data

Summary Information

Storm ID 1943054S17118
Start Feb 23 01Z
Landfall Feb 28 00Z
Max Intensity 60 kt (Feb 24 00Z), 980 mb (Feb 24 00Z)
End Mar 2 17Z
ATCF IDs
Track status Best track data.

Storm track plot

Map of storm track

Intensity plots

Map of storm track

Radial wind information

No radial wind information for this storm


Position and Intensity Table

BASIN ISO_TIME_________ NATURE LAT LON WMO PRES BOM PRES DS824 WIND DS824 PRES
degrees north degrees east mb mb kts mb
SI 1943-02-23 01:00:00 NR -16.50 118.00 990 990
SI 03:00:00 NR -16.59 117.86
SI 06:00:00 NR -16.73 117.65
SI 09:00:00 NR -16.87 117.44
SI 12:00:00 NR -17.03 117.23
SI 15:00:00 NR -17.21 117.02
SI 17:00:00 NR -17.09 117.26
SI 18:00:00 NR -17.00 117.43
SI 21:00:00 NR -17.12 117.32
SI 1943-02-24 00:00:00 TS -17.36 117.05 60 980
SI 01:00:00 TS -17.51 116.90 980 980
SI 03:00:00 TS -17.77 116.66
SI 05:00:00 TS -18.02 116.44
SI 06:00:00 TS -18.13 116.36
SI 09:00:00 TS -18.46 116.10
SI 12:00:00 TS -18.78 115.85
SI 15:00:00 TS -19.09 115.61
SI 17:00:00 TS -19.29 115.46
SI 18:00:00 TS -19.39 115.38
SI 21:00:00 TS -19.66 115.15
SI 1943-02-25 00:00:00 TS -19.92 114.93 60 980
SI 01:00:00 TS -19.99 114.86 980 980
SI 03:00:00 TS -20.13 114.74
SI 05:00:00 TS -20.25 114.63
SI 06:00:00 TS -20.31 114.58
SI 09:00:00 TS -20.47 114.45
SI 12:00:00 TS -20.62 114.35
SI 15:00:00 TS -20.75 114.26
SI 17:00:00 TS -20.83 114.20
SI 18:00:00 TS -20.86 114.16
SI 21:00:00 TS -20.96 114.05
SI 1943-02-26 00:00:00 TS -21.04 113.94 55 985
SI 01:00:00 TS -21.08 113.89 985 985
SI 03:00:00 TS -21.14 113.77
SI 05:00:00 TS -21.20 113.64
SI 06:00:00 TS -21.24 113.57
SI 09:00:00 TS -21.33 113.35
SI 12:00:00 TS -21.44 113.15
SI 15:00:00 TS -21.56 112.97
SI 17:00:00 TS -21.66 112.87
SI 18:00:00 TS -21.71 112.84
SI 21:00:00 TS -21.90 112.76
SI 1943-02-27 00:00:00 TS -22.12 112.76 45 990
SI 01:00:00 TS -22.20 112.78 990 990
SI 03:00:00 TS -22.38 112.85 990
SI 05:00:00 TS -22.57 112.95 990
SI 06:00:00 TS -22.65 113.00 991
SI 09:00:00 TS -22.90 113.16 991
SI 10:00:00 TS -22.98 113.21 992 992
SI 12:00:00 TS -23.10 113.30
SI 15:00:00 TS -23.26 113.43
SI 17:00:00 TS -23.36 113.51
SI 18:00:00 TS -23.38 113.56
SI 21:00:00 TS -23.49 113.67
SI 1943-02-28 00:00:00 TS -23.59 113.76 45 992
SI 01:00:00 NR -23.55 113.76 992 992
SI 03:00:00 NR -23.67 113.84
SI 05:00:00 NR -23.78 113.91
SI 06:00:00 NR -23.83 113.94
SI 09:00:00 NR -23.95 114.03
SI 12:00:00 NR -24.07 114.12
SI 15:00:00 NR -24.19 114.22
SI 17:00:00 NR -24.28 114.29
SI 18:00:00 NR -24.33 114.33
SI 21:00:00 NR -24.49 114.46
SI 1943-03-01 00:00:00 NR -24.68 114.60
SI 01:00:00 NR -24.74 114.65 994 994
SI 03:00:00 NR -24.88 114.74
SI 05:00:00 NR -25.02 114.82
SI 06:00:00 NR -25.09 114.86
SI 09:00:00 NR -25.30 114.98
SI 12:00:00 NR -25.52 115.09
SI 15:00:00 NR -25.78 115.18
SI 17:00:00 NR -25.99 115.22
SI 18:00:00 NR -26.10 115.25
SI 21:00:00 NR -26.34 115.39
SI 1943-03-02 00:00:00 TS -26.76 115.42 35 998
SI 01:00:00 NR -26.45 115.70 998 998
SI 03:00:00 NR -26.33 115.90
SI 05:00:00 NR -26.60 115.80
SI 06:00:00 NR -26.73 115.73
SI 09:00:00 NR -27.08 115.46
SI 12:00:00 NR -27.40 115.10
SI 15:00:00 NR -27.70 114.69
SI 17:00:00 NR -27.90 114.40

Source Information

Agency Information
USA
TOKYO
CMA
HKO
NEWDELHI
REUNION
BOM IDCKMSTM0S.csv:Line=1153:unnamed
NADI
WELLINGTON
DS824 aus_area.dat:120:NOT NAMED
TD9636 cons_worldwide_trop_cyclone_18710101-19891231-006:Line=2651
TD9635
NEUMANN
MLC

All available IBTrACS Data

SEASON BASIN SUBBASIN ISO_TIME_________ NATURE LAT LON WMO PRES WMO AGENCY DIST2LAND LANDFALL IFLAG USA SSHS BOM LAT BOM LON BOM PRES BOM PRES_METHOD DS824 LAT DS824 LON DS824 STAGE DS824 WIND DS824 PRES TD9636 LAT TD9636 LON TD9636 STAGE STORM SPEED STORM DIR
Year degrees north degrees east mb km km 1 degrees north degrees east mb degrees north degrees east kts mb degrees north degrees east kts degrees
1943 SI WA 1943-02-23 01:00:00 NR -16.50 118.00 990 bom 419 411 ______O_______ -1 -16.50 118.00 990 5 235
1943 SI WA 03:00:00 NR -16.59 117.86 411 404 ______P_______ -1 -16.59 117.86 5 236
1943 SI WA 06:00:00 NR -16.73 117.65 408 395 ______P_______ -1 -16.73 117.65 5 235
1943 SI WA 09:00:00 NR -16.87 117.44 398 389 ______P_______ -1 -16.87 117.44 5 233
1943 SI WA 12:00:00 NR -17.03 117.23 392 373 ______P_______ -1 -17.03 117.23 5 230
1943 SI WA 15:00:00 NR -17.21 117.02 376 373 ______P_______ -1 -17.21 117.02 1 152
1943 SI WA 17:00:00 NR -17.09 117.26 378 378 ______P___O___ -1 -17.34 116.88 -16.10 118.80 7 9 62
1943 SI WA 18:00:00 NR -17.00 117.43 387 376 ______P___P___ -1 -17.41 116.81 -16.18 118.67 7 1 117
1943 SI WA 21:00:00 NR -17.12 117.32 378 351 ______P___P___ -1 -17.64 116.59 -16.44 118.28 7 5 225
1943 SI WA 1943-02-24 00:00:00 TS -17.36 117.05 351 346 ______P__OP___ -1 -17.90 116.37 -17.90 116.40 TC 60 980 -16.69 117.90 7 8 226
1943 SI WA 01:00:00 TS -17.51 116.90 980 bom 346 313 ______O__PP___ -1 -18.00 116.30 980 -18.03 116.32 TC -16.77 117.78 7 11 223
1943 SI WA 03:00:00 TS -17.77 116.66 313 291 ______P__PP___ -1 -18.20 116.15 -18.29 116.17 TC -16.94 117.53 7 10 220
1943 SI WA 05:00:00 TS -18.02 116.44 292 281 ______P__PO___ -1 -18.42 116.00 -18.55 116.02 TC -17.10 117.30 7 9 218
1943 SI WA 06:00:00 TS -18.13 116.36 281 243 ______P__PP___ -1 -18.54 115.93 -18.68 115.95 TC -17.18 117.19 7 8 217
1943 SI WA 09:00:00 TS -18.46 116.10 243 218 ______P__PP___ -1 -18.89 115.71 -19.05 115.72 TC -17.43 116.87 7 8 217
1943 SI WA 12:00:00 TS -18.78 115.85 218 203 ______P__PP___ -1 -19.25 115.49 -19.41 115.51 TC -17.68 116.56 7 8 216
1943 SI WA 15:00:00 TS -19.09 115.61 203 192 ______P__PP___ -1 -19.60 115.27 -19.73 115.29 TC -17.93 116.28 7 8 216
1943 SI WA 17:00:00 TS -19.29 115.46 192 187 ______P__PO___ -1 -19.83 115.13 -19.94 115.15 TC -18.10 116.10 7 7 217
1943 SI WA 18:00:00 TS -19.39 115.38 187 176 ______P__PP___ -1 -19.94 115.06 -20.03 115.08 TC -18.19 116.00 7 7 218
1943 SI WA 21:00:00 TS -19.66 115.15 176 163 ______P__PP___ -1 -20.25 114.86 -20.29 114.89 TC -18.45 115.70 7 7 219
1943 SI WA 1943-02-25 00:00:00 TS -19.92 114.93 169 161 ______P__OP___ -1 -20.52 114.66 -20.50 114.70 TC 60 980 -18.73 115.43 7 6 219
1943 SI WA 01:00:00 TS -19.99 114.86 980 bom 161 160 ______O__PP___ -1 -20.60 114.60 980 4 -20.56 114.64 TC -18.82 115.35 7 6 221
1943 SI WA 03:00:00 TS -20.13 114.74 167 159 ______P__PP___ -1 -20.71 114.48 -20.66 114.53 TC -19.01 115.21 7 5 221
1943 SI WA 05:00:00 TS -20.25 114.63 167 158 ______P__PO___ -1 -20.79 114.37 -20.75 114.42 TC -19.20 115.10 7 5 220
1943 SI WA 06:00:00 TS -20.31 114.58 158 140 ______P__PP___ -1 -20.83 114.31 -20.79 114.36 TC -19.31 115.06 7 4 216
1943 SI WA 09:00:00 TS -20.47 114.45 140 133 ______P__PP___ -1 -20.91 114.15 -20.88 114.21 TC -19.63 115.01 7 4 214
1943 SI WA 12:00:00 TS -20.62 114.35 133 116 ______P__PP___ -1 -20.97 114.00 -20.95 114.06 TC -19.95 115.00 7 3 213
1943 SI WA 15:00:00 TS -20.75 114.26 116 116 ______P__PP___ -1 -21.02 113.86 -21.00 113.92 TC -20.24 115.00 7 3 216
1943 SI WA 17:00:00 TS -20.83 114.20 119 108 ______P__PO___ -1 -21.04 113.76 -21.04 113.82 TC -20.40 115.00 7 3 220
1943 SI WA 18:00:00 TS -20.86 114.16 108 100 ______P__PP___ -1 -21.06 113.72 -21.06 113.78 TC -20.47 114.99 7 3 226
1943 SI WA 21:00:00 TS -20.96 114.05 100 100 ______P__PP___ -1 -21.11 113.58 -21.12 113.64 TC -20.64 114.94 7 3 228
1943 SI WA 1943-02-26 00:00:00 TS -21.04 113.94 101 90 ______P__OP___ -1 -21.17 113.44 -21.20 113.50 TC 55 985 -20.76 114.87 7 3 230
1943 SI WA 01:00:00 TS -21.08 113.89 985 bom 90 90 ______O__PP___ -1 -21.20 113.40 985 -21.24 113.43 TC -20.79 114.84 7 4 238
1943 SI WA 03:00:00 TS -21.14 113.77 91 84 ______P__PP___ -1 -21.25 113.23 -21.33 113.30 TC -20.85 114.78 7 4 242
1943 SI WA 05:00:00 TS -21.20 113.64 88 88 ______P__PO___ -1 -21.30 113.05 -21.42 113.15 TC -20.90 114.70 7 4 243
1943 SI WA 06:00:00 TS -21.24 113.57 88 84 ______P__PP___ -1 -21.33 112.97 -21.46 113.08 TC -20.92 114.65 7 4 244
1943 SI WA 09:00:00 TS -21.33 113.35 91 91 ______P__PP___ -1 -21.42 112.70 -21.61 112.88 TC -20.97 114.48 7 4 243
1943 SI WA 12:00:00 TS -21.44 113.15 108 103 ______P__PP___ -1 -21.54 112.47 -21.77 112.69 TC -21.01 114.29 7 4 238
1943 SI WA 15:00:00 TS -21.56 112.97 108 108 ______P__PP___ -1 -21.69 112.28 -21.94 112.52 TC -21.06 114.11 7 4 230
1943 SI WA 17:00:00 TS -21.66 112.87 112 112 ______P__PO___ -1 -21.82 112.19 -22.05 112.43 TC -21.10 114.00 7 4 220
1943 SI WA 18:00:00 TS -21.71 112.84 121 112 ______P__PP___ -1 -21.89 112.16 -22.11 112.39 TC -21.13 113.96 7 4 204
1943 SI WA 21:00:00 TS -21.90 112.76 112 99 ______P__PP___ -1 -22.15 112.14 -22.30 112.32 TC -21.25 113.84 7 4 190
1943 SI WA 1943-02-27 00:00:00 TS -22.12 112.76 99 93 ______P__OP___ -1 -22.48 112.24 -22.50 112.30 TC 45 990 -21.38 113.74 7 4 0
1943 SI WA 01:00:00 TS -22.20 112.78 990 bom 93 75 ______O__PP___ -1 -22.60 112.30 990 -22.57 112.32 TC -21.42 113.71 7 5 161
1943 SI WA 03:00:00 TS -22.38 112.85 75 71 ______P__PP___ -1 -22.92 112.51 990 -22.70 112.39 TC -21.51 113.65 7 6 157
1943 SI WA 05:00:00 TS -22.57 112.95 71 61 ______P__PO___ -1 -23.26 112.76 990 -22.84 112.48 TC -21.60 113.60 7 6 153
1943 SI WA 06:00:00 TS -22.65 113.00 62 52 ______P__PP___ -1 -23.42 112.90 991 -22.91 112.54 TC -21.63 113.56 7 6 150
1943 SI WA 09:00:00 TS -22.90 113.16 52 52 ______P__PP___ -1 -23.88 113.29 991 -23.13 112.74 TC -21.70 113.45 7 6 149
1943 SI WA 10:00:00 TS -22.98 113.21 992 bom 60 51 ______O__PP___ -1 -24.00 113.40 992 -23.21 112.81 TC -21.72 113.42 7 5 147
1943 SI WA 12:00:00 TS -23.10 113.30 51 40 ______P__PP___ -1 -24.17 113.56 -23.36 112.97 TC -21.78 113.36 7 4 145
1943 SI WA 15:00:00 TS -23.26 113.43 40 30 ______P__PP___ -1 -24.30 113.74 -23.59 113.23 TC -21.89 113.31 7 4 143
1943 SI WA 17:00:00 TS -23.36 113.51 30 20 ______P__PO___ -1 -24.34 113.82 -23.75 113.41 TC -22.00 113.30 7 3 133
1943 SI WA 18:00:00 TS -23.38 113.56 20 10 ______P__PP___ -1 -24.35 113.86 -23.83 113.50 TC -22.08 113.31 7 3 131
1943 SI WA 21:00:00 TS -23.49 113.67 10 0 ______P__PP___ -1 -24.33 113.93 -24.06 113.76 TC -22.36 113.37 7 3 138
1943 SI WA 1943-02-28 00:00:00 TS -23.59 113.76 0 0 ______P__OP___ -1 -24.31 113.98 -24.30 114.00 TC 45 992 -22.69 113.48 7 1 126
1943 SI WA 01:00:00 NR -23.55 113.76 992 bom 0 0 ______O__PP___ -1 -24.30 114.00 992 -24.38 114.07 TC -22.80 113.52 7 2 139
1943 SI WA 03:00:00 NR -23.67 113.84 0 0 ______P__PP___ -1 -24.33 114.06 -24.53 114.21 TC -23.01 113.61 7 4 149
1943 SI WA 05:00:00 NR -23.78 113.91 0 0 ______P__PO___ -1 -24.36 114.12 -24.69 114.33 TC -23.20 113.70 7 4 148
1943 SI WA 06:00:00 NR -23.83 113.94 0 0 ______P__PP___ -1 -24.38 114.15 -24.77 114.39 TC -23.28 113.73 7 3 146
1943 SI WA 09:00:00 NR -23.95 114.03 0 0 ______P__PP___ -1 -24.43 114.23 -25.00 114.54 TC -23.47 113.84 7 3 146
1943 SI WA 12:00:00 NR -24.07 114.12 0 0 ______P__PP___ -1 -24.50 114.29 -25.22 114.66 TC -23.64 113.95 7 3 144
1943 SI WA 15:00:00 NR -24.19 114.22 0 0 ______P__PP___ -1 -24.58 114.35 -25.45 114.75 TC -23.80 114.09 7 3 143
1943 SI WA 17:00:00 NR -24.28 114.29 0 0 ______P__PO___ -1 -24.65 114.39 -25.60 114.80 TC -23.90 114.20 7 3 143
1943 SI WA 18:00:00 NR -24.33 114.33 0 0 ______P__PP___ -1 -24.69 114.40 -25.68 114.82 TC -23.96 114.26 7 4 144
1943 SI WA 21:00:00 NR -24.49 114.46 0 0 ______P__PP___ -1 -24.84 114.45 -25.90 114.87 TC -24.14 114.48 7 4 145
1943 SI WA 1943-03-01 00:00:00 NR -24.68 114.60 0 0 ______P__PP___ -1 -25.03 114.49 -26.13 114.91 TC -24.32 114.71 7 5 146
1943 SI WA 01:00:00 NR -24.74 114.65 994 bom 0 0 ______O__PP___ -1 -25.10 114.50 994 -26.20 114.91 TC -24.38 114.79 7 5 149
1943 SI WA 03:00:00 NR -24.88 114.74 0 0 ______P__PP___ -1 -25.26 114.52 -26.35 114.92 TC -24.49 114.95 7 5 150
1943 SI WA 05:00:00 NR -25.02 114.82 0 0 ______P__PO___ -1 -25.45 114.54 -26.50 114.92 TC -24.60 115.10 7 5 151
1943 SI WA 06:00:00 NR -25.09 114.86 0 0 ______P__PP___ -1 -25.54 114.55 -26.57 114.92 TC -24.64 115.17 7 5 152
1943 SI WA 09:00:00 NR -25.30 114.98 0 0 ______P__PP___ -1 -25.87 114.58 -26.79 114.90 TC -24.73 115.39 7 5 155
1943 SI WA 12:00:00 NR -25.52 115.09 0 0 ______P__PP___ -1 -26.22 114.61 -27.02 114.87 TC -24.83 115.58 7 5 160
1943 SI WA 15:00:00 NR -25.78 115.18 0 0 ______P__PP___ -1 -26.61 114.63 -27.24 114.84 TC -24.96 115.73 7 6 166
1943 SI WA 17:00:00 NR -25.99 115.22 0 0 ______P__PO___ -1 -26.87 114.65 -27.38 114.81 TC -25.10 115.80 7 6 170
1943 SI WA 18:00:00 NR -26.10 115.25 0 0 ______P__PP___ -1 -27.01 114.65 -27.46 114.80 TC -25.19 115.84 7 6 157
1943 SI WA 21:00:00 NR -26.34 115.39 0 0 ______P__PP___ -1 -27.43 114.67 -27.68 114.75 TC -25.53 115.93 7 7 167
1943 SI WA 1943-03-02 00:00:00 TS -26.76 115.42 0 0 ______P__OP___ -1 -27.86 114.69 -27.90 114.70 TC 35 998 -25.92 115.96 7 4 111
1943 SI WA 01:00:00 NR -26.45 115.70 998 bom 0 0 ______O___P___ -1 -28.00 114.70 998 TC -26.06 115.95 7 12 46
1943 SI WA 03:00:00 NR -26.33 115.90 0 0 __________P___ -1 TC -26.33 115.90 7 3 149
1943 SI WA 05:00:00 NR -26.60 115.80 0 0 __________O___ -1 TC -26.60 115.80 7 8 201
1943 SI WA 06:00:00 NR -26.73 115.73 0 0 __________P___ -1 TC -26.73 115.73 7 9 213
1943 SI WA 09:00:00 NR -27.08 115.46 0 0 __________P___ -1 TC -27.08 115.46 7 9 220
1943 SI WA 12:00:00 NR -27.40 115.10 0 0 __________P___ -1 TC -27.40 115.10 7 9 227
1943 SI WA 15:00:00 NR -27.70 114.69 0 0 __________P___ -1 TC -27.70 114.69 7 10 231
1943 SI WA 17:00:00 NR -27.90 114.40 0 __________O___ -1 TC -27.90 114.40 7 10 232